Time;durP1;ratioP1;P1;durP2;ratioP2;P2;SDS_P1;SDS_P2;PMS_P1;PMS_P2;Temp;Humidity;BMP_temperature;BMP_pressure;BME280_temperature;BME280_humidity;BME280_pressure;Samples;Min_cycle;Max_cycle;Signal;HPM_P1;HPM_P2
2022/04/27 00:01:31;;;;;;;2.47;1.15;;;20.60;39.70;;;;;;5095991;28;20025;-52
2022/04/27 00:03:58;;;;;;;1.30;1.08;;;20.60;39.70;;;;;;5095602;28;20024;-53
2022/04/27 00:06:24;;;;;;;2.05;1.23;;;20.60;39.70;;;;;;5095473;28;20016;-53
2022/04/27 00:08:52;;;;;;;1.58;1.20;;;20.50;39.60;;;;;;5095369;28;20027;-51
2022/04/27 00:11:17;;;;;;;1.38;0.90;;;20.60;39.70;;;;;;5095266;28;20016;-53
2022/04/27 00:13:46;;;;;;;1.73;1.23;;;20.50;39.60;;;;;;5095619;28;20364;-52
2022/04/27 00:16:12;;;;;;;1.52;0.93;;;20.50;39.70;;;;;;5095617;28;20012;-52
2022/04/27 00:18:40;;;;;;;1.85;1.25;;;20.50;39.70;;;;;;5094169;28;20015;-53
2022/04/27 00:21:07;;;;;;;1.17;1.05;;;20.50;39.70;;;;;;5095195;28;20044;-53
2022/04/27 00:23:34;;;;;;;2.25;1.33;;;20.50;39.80;;;;;;5094985;28;20094;-53
2022/04/27 00:26:00;;;;;;;1.30;1.20;;;20.50;39.70;;;;;;5095384;28;20082;-52
2022/04/27 00:28:26;;;;;;;1.88;1.30;;;20.50;39.80;;;;;;5095000;28;20535;-53
2022/04/27 00:30:53;;;;;;;3.60;1.45;;;20.50;39.80;;;;;;5094744;28;20020;-52
2022/04/27 00:33:20;;;;;;;1.58;1.15;;;20.50;39.80;;;;;;5095847;28;20061;-50
2022/04/27 00:35:46;;;;;;;1.42;1.10;;;20.50;39.80;;;;;;5095996;28;20051;-51
2022/04/27 00:38:12;;;;;;;1.02;1.00;;;20.50;39.80;;;;;;5095810;28;20022;-54
2022/04/27 00:40:38;;;;;;;2.30;1.30;;;20.50;39.80;;;;;;5095760;28;20016;-55
2022/04/27 00:43:05;;;;;;;1.40;1.20;;;20.50;39.90;;;;;;5095561;28;20063;-55
2022/04/27 00:45:31;;;;;;;2.42;1.10;;;20.50;39.90;;;;;;5095463;28;20013;-54
2022/04/27 00:47:58;;;;;;;1.70;1.30;;;20.50;39.90;;;;;;5095532;28;20016;-55
2022/04/27 00:50:24;;;;;;;2.97;1.38;;;20.40;39.90;;;;;;5097398;28;20019;-54
2022/04/27 00:52:51;;;;;;;1.85;1.25;;;20.50;39.90;;;;;;5097030;28;20012;-51
2022/04/27 00:55:17;;;;;;;1.63;1.20;;;20.50;39.90;;;;;;5097840;28;20020;-55
2022/04/27 00:57:46;;;;;;;1.75;1.10;;;20.40;39.90;;;;;;5099116;28;20020;-55
2022/04/27 01:00:15;;;;;;;1.85;1.38;;;20.40;39.90;;;;;;5095405;28;20034;-52
2022/04/27 01:02:42;;;;;;;1.73;1.20;;;20.40;39.90;;;;;;5096433;28;20048;-51
2022/04/27 01:05:10;;;;;;;1.63;1.05;;;20.40;39.90;;;;;;5095414;28;20020;-53
2022/04/27 01:07:40;;;;;;;2.13;1.33;;;20.40;39.90;;;;;;5094505;28;20039;-55
2022/04/27 01:10:06;;;;;;;2.45;1.23;;;20.40;40.00;;;;;;5094308;28;20000;-54
2022/04/27 01:12:32;;;;;;;2.10;1.40;;;20.40;40.00;;;;;;5095178;28;20020;-54
2022/04/27 01:14:58;;;;;;;2.13;1.17;;;20.40;40.00;;;;;;5095448;28;20012;-53
2022/04/27 01:17:24;;;;;;;2.05;1.20;;;20.40;40.00;;;;;;5095349;28;20043;-51
2022/04/27 01:19:50;;;;;;;2.00;1.20;;;20.40;40.00;;;;;;5095254;28;20024;-52
2022/04/27 01:22:16;;;;;;;1.83;1.20;;;20.40;40.00;;;;;;5095085;28;20055;-55
2022/04/27 01:24:44;;;;;;;2.35;1.02;;;20.40;40.00;;;;;;5095331;28;20577;-53
2022/04/27 01:27:10;;;;;;;1.85;1.10;;;20.40;40.00;;;;;;5095010;28;20032;-52
2022/04/27 01:29:37;;;;;;;1.77;1.20;;;20.40;40.10;;;;;;5094882;28;20013;-53
2022/04/27 01:32:03;;;;;;;2.20;1.25;;;20.40;40.10;;;;;;5095086;28;20065;-52
2022/04/27 01:34:29;;;;;;;1.98;1.25;;;20.30;40.10;;;;;;5093763;28;20035;-53
2022/04/27 01:37:59;;;;;;;1.75;1.30;;;20.30;40.10;;;;;;5095475;28;20364;-53
2022/04/27 01:39:42;;;;;;;1.50;1.23;;;20.40;40.10;;;;;;5095434;28;20059;-54
2022/04/27 01:42:08;;;;;;;1.80;1.30;;;20.40;40.10;;;;;;5096512;28;20048;-55
2022/04/27 01:44:34;;;;;;;2.78;1.27;;;20.30;40.10;;;;;;5096094;28;20035;-54
2022/04/27 01:47:00;;;;;;;1.98;1.30;;;20.30;40.10;;;;;;5098212;28;20020;-54
2022/04/27 01:49:26;;;;;;;1.60;1.30;;;20.30;40.10;;;;;;5098318;28;20020;-54
2022/04/27 01:54:36;;;;;;;1.40;1.15;;;20.30;40.10;;;;;;5097926;28;20398;-53
2022/04/27 01:57:02;;;;;;;1.70;1.30;;;20.30;40.10;;;;;;5096111;28;20013;-51
2022/04/27 01:59:29;;;;;;;3.08;1.35;;;20.30;40.20;;;;;;5095845;28;20437;-56
2022/04/27 02:01:57;;;;;;;1.77;1.13;;;20.30;40.20;;;;;;5096447;28;20038;-53
2022/04/27 02:04:23;;;;;;;1.85;1.25;;;20.30;40.20;;;;;;5096334;28;20016;-51
2022/04/27 02:06:49;;;;;;;2.85;1.30;;;20.30;40.20;;;;;;5099777;28;20031;-53
2022/04/27 02:09:17;;;;;;;1.27;1.15;;;20.30;40.20;;;;;;5098679;28;20062;-53
2022/04/27 02:11:43;;;;;;;2.22;1.20;;;20.30;40.20;;;;;;5096056;28;20082;-53
2022/04/27 02:14:10;;;;;;;1.50;1.23;;;20.30;40.30;;;;;;5092739;28;20052;-54
2022/04/27 02:16:37;;;;;;;2.05;1.30;;;20.30;40.30;;;;;;5092498;28;20009;-55
2022/04/27 02:19:04;;;;;;;2.00;1.27;;;20.30;40.20;;;;;;5093561;28;20493;-52
2022/04/27 02:21:31;;;;;;;1.88;1.30;;;20.20;40.20;;;;;;5093925;28;20474;-49
2022/04/27 02:23:57;;;;;;;1.50;1.08;;;20.30;40.30;;;;;;5094098;28;20040;-52
2022/04/27 02:26:24;;;;;;;2.08;1.30;;;20.20;40.30;;;;;;5093807;28;20134;-52
2022/04/27 02:28:51;;;;;;;2.25;1.10;;;20.20;40.30;;;;;;5095299;28;20043;-53
2022/04/27 02:31:17;;;;;;;1.40;1.00;;;20.20;40.30;;;;;;5094232;28;20027;-52
2022/04/27 02:33:44;;;;;;;1.30;1.10;;;20.20;40.30;;;;;;5093378;28;20039;-52
2022/04/27 02:36:10;;;;;;;1.30;1.13;;;20.20;40.30;;;;;;5092690;28;20078;-53
2022/04/27 02:38:36;;;;;;;1.63;1.20;;;20.20;40.30;;;;;;5095199;28;20089;-54
2022/04/27 02:41:03;;;;;;;2.58;1.20;;;20.20;40.30;;;;;;5093551;28;20378;-55
2022/04/27 02:43:29;;;;;;;1.60;1.15;;;20.20;40.30;;;;;;5092635;28;20036;-52
2022/04/27 02:45:55;;;;;;;1.52;1.23;;;20.20;40.40;;;;;;5093634;28;20017;-50
2022/04/27 02:48:21;;;;;;;1.33;1.10;;;20.20;40.40;;;;;;5095783;28;20035;-52
2022/04/27 02:53:35;;;;;;;2.40;1.45;;;20.20;40.40;;;;;;5094183;28;20485;-50
2022/04/27 02:56:03;;;;;;;1.73;1.30;;;20.20;40.40;;;;;;5094543;28;20016;-54
2022/04/27 02:58:29;;;;;;;1.77;1.30;;;20.10;40.40;;;;;;5094818;28;20039;-51
2022/04/27 03:00:55;;;;;;;1.58;1.00;;;20.20;40.50;;;;;;5095267;28;20016;-49
2022/04/27 03:03:22;;;;;;;1.60;1.42;;;20.10;40.40;;;;;;5094594;28;20043;-53
2022/04/27 03:05:48;;;;;;;2.50;1.35;;;20.10;40.40;;;;;;5096064;28;20436;-53
2022/04/27 03:08:14;;;;;;;4.75;1.20;;;20.10;40.40;;;;;;5096840;28;20019;-52
2022/04/27 03:10:40;;;;;;;1.73;1.13;;;20.10;40.40;;;;;;5096517;28;20028;-53
2022/04/27 03:13:06;;;;;;;2.17;1.08;;;20.10;40.50;;;;;;5097527;28;20024;-54
2022/04/27 03:15:33;;;;;;;2.00;1.20;;;20.10;40.40;;;;;;5097684;28;20466;-52
2022/04/27 03:18:17;;;;;;;2.13;1.30;;;20.10;40.50;;;;;;5097103;28;20488;-52
2022/04/27 03:20:43;;;;;;;3.97;1.40;;;20.10;40.50;;;;;;5097101;28;20463;-53
2022/04/27 03:23:09;;;;;;;2.95;1.33;;;20.10;40.50;;;;;;5096858;28;20044;-52
2022/04/27 03:25:35;;;;;;;2.60;1.23;;;20.10;40.50;;;;;;5097195;28;20066;-53
2022/04/27 03:28:02;;;;;;;2.10;1.42;;;20.10;40.50;;;;;;5096825;28;20028;-52
2022/04/27 03:30:29;;;;;;;2.97;1.60;;;20.10;40.50;;;;;;5095911;28;20024;-52
2022/04/27 03:32:55;;;;;;;4.07;1.50;;;20.10;40.50;;;;;;5096983;28;20016;-54
2022/04/27 03:35:21;;;;;;;3.75;1.42;;;20.10;40.50;;;;;;5097046;28;20031;-50
2022/04/27 03:37:47;;;;;;;2.70;1.45;;;20.10;41.10;;;;;;5096603;28;20628;-53
2022/04/27 03:40:14;;;;;;;1.83;1.20;;;20.10;40.60;;;;;;5096846;28;20032;-53
2022/04/27 03:42:40;;;;;;;1.40;1.15;;;20.10;40.60;;;;;;5095921;28;20032;-53
2022/04/27 03:45:08;;;;;;;2.55;1.50;;;20.00;40.50;;;;;;5095739;28;20016;-53
2022/04/27 03:47:34;;;;;;;1.73;1.20;;;20.00;40.50;;;;;;5097810;28;20021;-54
2022/04/27 03:50:04;;;;;;;2.13;1.30;;;20.00;40.50;;;;;;5097193;28;20097;-52
2022/04/27 03:52:30;;;;;;;2.88;1.48;;;20.00;40.60;;;;;;5097671;28;20028;-52
2022/04/27 03:55:00;;;;;;;1.98;1.20;;;20.00;40.60;;;;;;5098636;28;20016;-51
2022/04/27 03:57:27;;;;;;;2.70;1.33;;;20.00;40.60;;;;;;5097668;28;20065;-51
2022/04/27 03:59:53;;;;;;;2.22;1.58;;;20.00;40.60;;;;;;5099303;28;20024;-57
2022/04/27 04:02:19;;;;;;;5.13;1.33;;;20.00;40.60;;;;;;5098922;28;20091;-51
2022/04/27 04:04:45;;;;;;;1.90;1.35;;;20.00;40.60;;;;;;5098659;28;20048;-52
2022/04/27 04:07:12;;;;;;;5.05;1.50;;;20.00;40.60;;;;;;5096831;28;20064;-53
2022/04/27 04:09:39;;;;;;;2.28;1.23;;;20.00;40.60;;;;;;5098239;28;20510;-52
2022/04/27 04:12:06;;;;;;;2.65;1.60;;;20.00;40.60;;;;;;5096752;28;20115;-52
2022/04/27 04:14:32;;;;;;;2.08;1.33;;;20.00;40.70;;;;;;5096164;28;20028;-52
2022/04/27 04:16:57;;;;;;;1.83;1.30;;;20.00;40.70;;;;;;5097241;28;20020;-55
2022/04/27 04:19:23;;;;;;;3.78;1.30;;;20.00;40.70;;;;;;5095644;28;20050;-53
2022/04/27 04:21:50;;;;;;;2.08;1.30;;;20.00;40.70;;;;;;5096514;28;20491;-50
2022/04/27 04:24:17;;;;;;;1.73;1.20;;;20.00;40.70;;;;;;5096609;28;20058;-53
2022/04/27 04:29:26;;;;;;;3.55;1.40;;;20.00;40.70;;;;;;5096512;28;20085;-53
2022/04/27 04:31:53;;;;;;;1.95;1.35;;;19.90;40.70;;;;;;5097167;28;20093;-54
2022/04/27 04:34:20;;;;;;;4.65;1.42;;;20.00;40.70;;;;;;5096645;28;20450;-53
2022/04/27 04:36:46;;;;;;;1.77;1.50;;;19.90;40.70;;;;;;5096702;28;20062;-49
2022/04/27 04:39:13;;;;;;;1.40;1.30;;;19.90;40.70;;;;;;5096808;28;20036;-53
2022/04/27 04:41:40;;;;;;;2.17;1.33;;;19.90;40.70;;;;;;5097257;28;20036;-53
2022/04/27 04:44:06;;;;;;;1.95;1.35;;;19.90;40.70;;;;;;5097028;28;20081;-55
2022/04/27 04:46:32;;;;;;;3.78;1.50;;;19.90;40.70;;;;;;5097452;28;20466;-54
2022/04/27 04:48:58;;;;;;;1.80;1.27;;;19.90;40.70;;;;;;5096798;28;20336;-53
2022/04/27 04:51:25;;;;;;;1.92;1.40;;;19.90;40.80;;;;;;5096417;28;20020;-54
2022/04/27 04:53:51;;;;;;;2.00;1.35;;;19.90;40.80;;;;;;5096448;28;20032;-51
2022/04/27 04:56:18;;;;;;;1.48;1.20;;;19.90;40.70;;;;;;5096519;28;20383;-52
2022/04/27 04:58:44;;;;;;;4.00;1.60;;;19.90;40.70;;;;;;5096891;28;20108;-54
2022/04/27 05:01:11;;;;;;;2.08;1.48;;;19.90;40.70;;;;;;5095955;28;20036;-54
2022/04/27 05:03:38;;;;;;;2.53;1.67;;;19.90;40.70;;;;;;5096187;28;20024;-54
2022/04/27 05:06:04;;;;;;;2.47;1.40;;;19.90;40.70;;;;;;5096395;28;20534;-51
2022/04/27 05:08:30;;;;;;;2.78;1.50;;;19.90;40.80;;;;;;5095373;28;20356;-55
2022/04/27 05:10:56;;;;;;;2.67;1.63;;;19.90;40.80;;;;;;5093872;28;20012;-53
2022/04/27 05:13:22;;;;;;;1.58;1.40;;;19.90;40.70;;;;;;5093682;28;20031;-52
2022/04/27 05:15:48;;;;;;;1.95;1.40;;;19.90;40.70;;;;;;5094694;28;20051;-52
2022/04/27 05:18:17;;;;;;;2.05;1.45;;;19.90;40.80;;;;;;5095091;28;20093;-54
2022/04/27 05:20:43;;;;;;;2.63;1.60;;;19.90;40.80;;;;;;5094769;28;20019;-53
2022/04/27 05:23:12;;;;;;;2.13;1.40;;;19.90;40.80;;;;;;5095382;28;20487;-53
2022/04/27 05:25:38;;;;;;;3.25;1.50;;;19.90;40.80;;;;;;5095566;28;20039;-53
2022/04/27 05:28:04;;;;;;;1.67;1.42;;;19.90;40.80;;;;;;5093015;28;20514;-54
2022/04/27 05:33:18;;;;;;;1.90;1.45;;;19.90;40.80;;;;;;5095136;28;20427;-54
2022/04/27 05:35:44;;;;;;;2.28;1.65;;;19.90;40.80;;;;;;5095294;28;20020;-54
2022/04/27 05:38:10;;;;;;;6.35;1.73;;;19.80;40.70;;;;;;5095827;28;20027;-55
2022/04/27 05:40:41;;;;;;;1.80;1.30;;;19.80;40.80;;;;;;5094452;28;20173;-51
2022/04/27 05:43:09;;;;;;;;;;;19.80;40.80;;;;;;5093871;28;20091;-49
2022/04/27 05:45:35;;;;;;;2.42;1.38;;;19.90;40.80;;;;;;5094333;28;19905;-54
2022/04/27 05:48:01;;;;;;;1.80;1.38;;;19.90;40.70;;;;;;5093192;28;20546;-53
2022/04/27 05:50:27;;;;;;;1.88;1.30;;;20.00;40.60;;;;;;5094176;28;20001;-54
2022/04/27 05:52:56;;;;;;;2.42;1.40;;;20.10;40.30;;;;;;5093753;28;20042;-55
2022/04/27 05:55:22;;;;;;;2.80;1.50;;;20.30;40.20;;;;;;5094401;28;20360;-50
2022/04/27 05:57:48;;;;;;;2.80;1.40;;;20.40;39.90;;;;;;5094472;28;20127;-52
2022/04/27 06:00:17;;;;;;;2.28;1.20;;;20.50;39.70;;;;;;5094872;28;20019;-54
2022/04/27 06:02:43;;;;;;;2.33;1.40;;;20.60;39.50;;;;;;5092824;28;20085;-53
2022/04/27 06:05:09;;;;;;;2.03;1.23;;;20.70;39.30;;;;;;5094159;28;20019;-54
2022/04/27 06:07:36;;;;;;;2.13;1.48;;;20.80;39.10;;;;;;5094558;28;20438;-52
2022/04/27 06:10:07;;;;;;;2.20;1.30;;;20.90;39.00;;;;;;5093659;28;20100;-52
2022/04/27 06:12:36;;;;;;;2.33;1.17;;;21.00;38.80;;;;;;5093882;28;20020;-54
2022/04/27 06:15:10;;;;;;;1.65;1.10;;;21.10;38.60;;;;;;5094055;28;20485;-54
2022/04/27 06:17:36;;;;;;;2.17;1.10;;;21.20;38.50;;;;;;5092338;28;20012;-51
2022/04/27 06:20:02;;;;;;;1.23;0.90;;;21.20;38.30;;;;;;5092173;28;20042;-53
2022/04/27 06:22:29;;;;;;;2.80;1.30;;;21.30;38.20;;;;;;5092418;28;20127;-49
2022/04/27 06:24:55;;;;;;;7.13;2.17;;;21.40;38.60;;;;;;5091783;28;20137;-50
2022/04/27 06:27:22;;;;;;;9.55;2.38;;;21.40;39.10;;;;;;5092146;28;20012;-48
2022/04/27 06:29:48;;;;;;;7.65;2.72;;;21.50;39.50;;;;;;5108350;28;20490;-50
2022/04/27 06:32:14;;;;;;;15.02;3.15;;;21.60;39.70;;;;;;5092566;28;20027;-53
2022/04/27 06:34:40;;;;;;;9.77;3.33;;;21.60;39.70;;;;;;5091328;28;20024;-52
2022/04/27 06:37:06;;;;;;;15.70;3.58;;;21.60;39.90;;;;;;5092895;28;20012;-51
2022/04/27 06:39:32;;;;;;;12.23;3.85;;;21.60;40.10;;;;;;5077480;28;20103;-52
2022/04/27 06:41:57;;;;;;;15.90;4.10;;;21.60;40.50;;;;;;5098135;28;20431;-50
2022/04/27 06:44:23;;;;;;;11.77;3.60;;;21.80;40.30;;;;;;5097567;28;20012;-50
2022/04/27 06:46:49;;;;;;;10.40;3.88;;;21.90;40.90;;;;;;5096656;28;20015;-54
2022/04/27 06:49:15;;;;;;;8.45;3.63;;;22.10;40.50;;;;;;5096778;28;20111;-53
2022/04/27 06:51:41;;;;;;;12.52;3.13;;;22.20;40.40;;;;;;5096562;28;20021;-52
2022/04/27 06:54:07;;;;;;;10.50;3.08;;;22.30;40.20;;;;;;5096496;28;20454;-51
2022/04/27 06:56:32;;;;;;;9.88;3.55;;;22.40;39.70;;;;;;5096211;28;20097;-52
2022/04/27 06:58:58;;;;;;;7.88;3.28;;;22.40;40.00;;;;;;5094967;28;20436;-50
2022/04/27 07:01:24;;;;;;;8.98;3.45;;;22.30;39.60;;;;;;5096233;28;20461;-53
2022/04/27 07:03:55;;;;;;;13.27;2.95;;;22.30;39.40;;;;;;5094607;28;20030;-50
2022/04/27 07:06:21;;;;;;;9.80;2.90;;;22.40;39.30;;;;;;5094905;28;20105;-50
2022/04/27 07:08:48;;;;;;;10.25;3.15;;;22.40;39.10;;;;;;5095933;28;20012;-52
2022/04/27 07:11:14;;;;;;;8.52;2.80;;;22.50;38.80;;;;;;5095869;28;20012;-52
2022/04/27 07:13:40;;;;;;;15.48;3.60;;;22.50;38.60;;;;;;5094105;28;20453;-54
2022/04/27 07:16:05;;;;;;;21.65;4.15;;;22.40;38.20;;;;;;5095991;28;20024;-53
2022/04/27 07:18:34;;;;;;;15.55;3.17;;;22.30;38.20;;;;;;5096155;28;20024;-53
2022/04/27 07:21:00;;;;;;;12.70;2.80;;;22.20;38.40;;;;;;5095442;28;20012;-53
2022/04/27 07:23:26;;;;;;;9.68;3.00;;;22.20;38.50;;;;;;5096256;28;20040;-51
2022/04/27 07:25:52;;;;;;;8.05;2.72;;;22.20;38.50;;;;;;5095110;28;20076;-51
2022/04/27 07:28:18;;;;;;;11.75;2.30;;;22.20;38.40;;;;;;5094815;28;20513;-53
2022/04/27 07:30:44;;;;;;;14.10;3.60;;;22.20;38.40;;;;;;5096155;28;20095;-54
2022/04/27 07:33:10;;;;;;;13.32;2.90;;;22.20;38.40;;;;;;5094624;28;20170;-50
2022/04/27 07:35:36;;;;;;;11.98;3.03;;;22.20;38.40;;;;;;5094755;28;20474;-50
2022/04/27 07:38:02;;;;;;;9.30;2.30;;;22.20;38.30;;;;;;5096513;28;20035;-52
2022/04/27 07:40:29;;;;;;;8.75;2.03;;;22.20;38.30;;;;;;5096475;28;20065;-54
2022/04/27 07:42:55;;;;;;;11.07;2.20;;;22.20;38.30;;;;;;5094331;28;20063;-52
2022/04/27 07:45:21;;;;;;;7.32;2.47;;;22.20;38.30;;;;;;5096216;28;20099;-50
2022/04/27 07:47:47;;;;;;;9.57;2.47;;;22.20;38.30;;;;;;5095791;28;20091;-51
2022/04/27 07:50:15;;;;;;;8.73;2.58;;;22.30;38.20;;;;;;5093687;28;20012;-53
2022/04/27 07:52:41;;;;;;;8.20;2.17;;;22.30;38.10;;;;;;5096011;28;20048;-54
2022/04/27 07:55:07;;;;;;;5.75;1.98;;;22.30;38.10;;;;;;5095651;28;20008;-52
2022/04/27 07:57:33;;;;;;;7.22;2.13;;;22.30;38.00;;;;;;5095409;28;20020;-52
2022/04/27 08:00:02;;;;;;;10.15;1.90;;;22.30;38.00;;;;;;5095390;28;20050;-53
2022/04/27 08:02:28;;;;;;;5.38;2.05;;;22.30;38.00;;;;;;5095054;28;20034;-54
2022/04/27 08:04:54;;;;;;;5.07;1.80;;;22.40;38.10;;;;;;5095202;28;20008;-46
2022/04/27 08:07:21;;;;;;;8.00;2.15;;;22.30;38.00;;;;;;5093252;28;20034;-48
2022/04/27 08:09:46;;;;;;;10.25;1.88;;;22.30;38.00;;;;;;5094975;28;20008;-50
2022/04/27 08:12:12;;;;;;;7.45;1.80;;;22.40;38.00;;;;;;5094883;28;20027;-46
2022/04/27 08:14:39;;;;;;;9.95;1.90;;;22.40;37.90;;;;;;5094887;28;20158;-50
2022/04/27 08:17:07;;;;;;;5.15;1.90;;;22.40;37.80;;;;;;5092880;28;20024;-47
2022/04/27 08:19:33;;;;;;;8.90;1.90;;;22.40;37.80;;;;;;5093695;28;20210;-46
2022/04/27 08:21:59;;;;;;;7.38;1.90;;;22.40;37.90;;;;;;5093686;28;20158;-46
2022/04/27 08:24:25;;;;;;;7.63;2.17;;;22.40;38.00;;;;;;5092798;28;20127;-46
2022/04/27 08:26:51;;;;;;;7.90;1.67;;;22.60;37.60;;;;;;5094331;28;20095;-46
2022/04/27 08:29:17;;;;;;;8.70;1.80;;;22.70;37.60;;;;;;5094015;28;20044;-47
2022/04/27 08:31:43;;;;;;;7.55;2.05;;;22.80;37.30;;;;;;5094239;28;20095;-47
2022/04/27 08:34:09;;;;;;;5.68;2.08;;;22.90;37.10;;;;;;5092713;28;20426;-50
2022/04/27 08:36:36;;;;;;;9.18;1.95;;;23.00;36.90;;;;;;5092551;28;20472;-51
2022/04/27 08:39:02;;;;;;;8.05;1.60;;;23.00;36.80;;;;;;5094108;28;20088;-49
2022/04/27 08:41:30;;;;;;;10.73;2.30;;;23.00;36.80;;;;;;5093959;28;20016;-50
2022/04/27 08:43:56;;;;;;;7.57;1.77;;;23.00;36.80;;;;;;5093298;28;20028;-51
2022/04/27 08:46:24;;;;;;;6.53;1.48;;;23.00;36.80;;;;;;5126260;27;20023;-51
2022/04/27 08:48:50;;;;;;;8.55;1.80;;;23.00;36.80;;;;;;5092558;28;20016;-52
2022/04/27 08:51:16;;;;;;;6.68;1.70;;;23.00;36.80;;;;;;5092652;28;20023;-52
2022/04/27 08:53:42;;;;;;;7.05;1.80;;;23.00;36.70;;;;;;5092271;28;20119;-51
2022/04/27 08:56:08;;;;;;;5.40;1.52;;;23.00;36.60;;;;;;5093384;28;20443;-49
2022/04/27 08:58:35;;;;;;;7.80;1.90;;;23.00;36.60;;;;;;5093698;28;20031;-52
2022/04/27 09:01:01;;;;;;;5.07;1.60;;;23.00;36.60;;;;;;5091966;28;20383;-53
2022/04/27 09:03:29;;;;;;;5.53;1.65;;;23.10;36.60;;;;;;5092299;28;20031;-54
2022/04/27 09:06:10;;;;;;;5.82;1.65;;;23.10;36.50;;;;;;5092898;28;20068;-53
2022/04/27 09:08:43;;;;;;;4.72;1.33;;;23.10;36.40;;;;;;5093268;28;20119;-53
2022/04/27 09:11:14;;;;;;;4.90;1.80;;;23.20;36.30;;;;;;5092879;28;20021;-54
2022/04/27 09:13:44;;;;;;;5.18;1.42;;;23.20;36.30;;;;;;5093148;28;20143;-53
2022/04/27 09:16:09;;;;;;;6.15;1.45;;;23.20;36.20;;;;;;5093134;28;20044;-54
2022/04/27 09:22:08;;;;;;;3.53;1.45;;;23.20;36.10;;;;;;5093193;28;20127;-53
2022/04/27 09:25:03;;;;;;;5.32;1.63;;;23.30;36.10;;;;;;5088389;28;20097;-54
2022/04/27 09:27:28;;;;;;;5.32;1.42;;;23.30;36.00;;;;;;5088296;28;20034;-53
2022/04/27 09:29:59;;;;;;;5.03;1.40;;;23.30;36.00;;;;;;5093356;28;20008;-50
2022/04/27 09:32:25;;;;;;;5.00;1.73;;;23.30;36.00;;;;;;5092808;28;20043;-51
2022/04/27 09:34:51;;;;;;;5.03;1.35;;;23.30;36.00;;;;;;5092922;28;20399;-56
2022/04/27 09:37:30;;;;;;;5.57;1.63;;;23.30;35.90;;;;;;5093106;28;20402;-50
2022/04/27 09:40:11;;;;;;;5.45;1.40;;;23.40;35.80;;;;;;5092967;28;20012;-56
2022/04/27 09:42:45;;;;;;;4.47;1.23;;;23.40;35.70;;;;;;5092966;28;20030;-49
2022/04/27 09:45:17;;;;;;;5.55;1.48;;;23.50;35.70;;;;;;5093021;28;20099;-54
2022/04/27 09:47:47;;;;;;;4.97;1.35;;;23.50;35.70;;;;;;5093424;28;20012;-54
2022/04/27 09:50:14;;;;;;;4.22;1.30;;;23.50;35.70;;;;;;5093125;28;20016;-52
2022/04/27 09:52:40;;;;;;;3.70;1.58;;;23.50;35.60;;;;;;5093117;28;20111;-53
2022/04/27 09:55:07;;;;;;;5.05;1.20;;;23.50;35.50;;;;;;5091234;28;20016;-57
2022/04/27 09:57:38;;;;;;;4.55;1.40;;;23.50;35.50;;;;;;5092221;28;20020;-52
2022/04/27 10:00:05;;;;;;;2.72;1.17;;;23.50;35.50;;;;;;5091512;28;20008;-56
2022/04/27 10:02:31;;;;;;;4.53;1.30;;;23.50;35.40;;;;;;5092141;28;20111;-57
2022/04/27 10:04:59;;;;;;;2.25;1.17;;;23.50;35.40;;;;;;5092137;28;20008;-57
2022/04/27 10:07:25;;;;;;;2.95;1.42;;;23.50;35.50;;;;;;5125643;27;20025;-57
2022/04/27 10:09:52;;;;;;;4.88;1.10;;;23.40;35.70;;;;;;5091741;28;20011;-53
2022/04/27 10:12:18;;;;;;;5.60;1.33;;;23.40;35.60;;;;;;5092102;28;20020;-57
2022/04/27 10:14:44;;;;;;;2.72;1.27;;;23.40;35.60;;;;;;5092788;28;20387;-56
2022/04/27 10:17:11;;;;;;;4.53;1.48;;;23.50;35.50;;;;;;5093404;28;20089;-56
2022/04/27 10:19:43;;;;;;;4.88;1.40;;;23.40;35.50;;;;;;5093444;28;20043;-55
2022/04/27 10:22:31;;;;;;;2.05;1.25;;;23.50;35.60;;;;;;5064040;28;20048;-57
2022/04/27 10:25:09;;;;;;;2.90;1.30;;;23.40;35.50;;;;;;5056892;28;20032;-56
2022/04/27 10:27:39;;;;;;;3.13;1.30;;;23.40;35.60;;;;;;5072744;28;20009;-56
2022/04/27 10:30:10;;;;;;;4.28;1.40;;;23.40;35.50;;;;;;5072751;28;20012;-57
2022/04/27 10:32:49;;;;;;;5.45;1.30;;;23.40;35.60;;;;;;5072672;28;20019;-57
2022/04/27 10:35:25;;;;;;;4.57;1.33;;;23.40;35.70;;;;;;5073069;28;20020;-56
2022/04/27 10:38:05;;;;;;;2.13;1.33;;;23.30;35.70;;;;;;5072637;28;20024;-58
2022/04/27 10:40:43;;;;;;;2.85;1.20;;;23.30;35.80;;;;;;5072918;28;20028;-56
2022/04/27 10:43:10;;;;;;;2.22;0.98;;;23.30;36.40;;;;;;5072748;28;20040;-56
2022/04/27 10:45:41;;;;;;;5.47;1.20;;;23.20;35.70;;;;;;5072873;28;20033;-57
2022/04/27 10:48:27;;;;;;;2.78;1.50;;;23.20;35.80;;;;;;5072449;28;20028;-58
2022/04/27 10:51:04;;;;;;;3.33;1.27;;;23.20;35.90;;;;;;5071367;28;20011;-57
2022/04/27 10:53:39;;;;;;;2.25;1.25;;;23.10;35.90;;;;;;5072586;28;20027;-58
2022/04/27 10:56:25;;;;;;;3.95;1.23;;;23.00;35.90;;;;;;5072905;28;20125;-56
2022/04/27 10:58:52;;;;;;;2.22;1.08;;;23.00;35.90;;;;;;5072926;28;20032;-58
2022/04/27 11:01:19;;;;;;;2.60;1.20;;;23.00;36.00;;;;;;5072890;28;20021;-58
2022/04/27 11:03:54;;;;;;;2.22;1.00;;;22.80;36.20;;;;;;5072683;28;20052;-58
2022/04/27 11:06:21;;;;;;;3.03;1.30;;;22.70;36.30;;;;;;5072362;28;20096;-58
2022/04/27 11:09:09;;;;;;;3.95;1.27;;;22.60;36.30;;;;;;5072871;28;20012;-58
2022/04/27 11:11:51;;;;;;;4.28;1.30;;;22.60;36.60;;;;;;5072827;28;20017;-57
2022/04/27 11:14:18;;;;;;;2.72;1.20;;;22.40;36.60;;;;;;5072853;28;20028;-57
2022/04/27 11:16:47;;;;;;;3.28;1.15;;;22.40;36.70;;;;;;5071834;28;20028;-57
2022/04/27 11:19:13;;;;;;;2.83;1.42;;;22.40;36.80;;;;;;5073047;28;20021;-59
2022/04/27 11:21:40;;;;;;;2.97;1.10;;;22.40;36.70;;;;;;5072727;28;20090;-59
2022/04/27 11:24:07;;;;;;;2.53;1.20;;;22.40;36.80;;;;;;5072370;28;20169;-58
2022/04/27 11:26:48;;;;;;;4.15;1.38;;;22.40;36.90;;;;;;5074690;28;20024;-58
2022/04/27 11:29:15;;;;;;;1.83;1.08;;;22.40;37.00;;;;;;5075915;28;20078;-59
2022/04/27 11:31:44;;;;;;;2.58;1.17;;;22.40;36.90;;;;;;5075946;28;20013;-58
2022/04/27 11:34:28;;;;;;;2.92;1.20;;;22.30;37.10;;;;;;5078471;28;20048;-59
2022/04/27 11:36:54;;;;;;;2.30;1.20;;;22.20;37.10;;;;;;5076384;28;20019;-59
2022/04/27 11:39:24;;;;;;;2.28;1.17;;;22.20;37.20;;;;;;5074858;28;20021;-57
2022/04/27 11:42:02;;;;;;;2.58;1.13;;;22.30;37.10;;;;;;5076327;28;20024;-57
2022/04/27 11:44:30;;;;;;;2.28;1.20;;;22.20;36.90;;;;;;5075634;28;20029;-58
2022/04/27 11:46:58;;;;;;;3.08;1.30;;;22.20;37.00;;;;;;5076081;28;20096;-57
2022/04/27 11:49:26;;;;;;;1.42;0.90;;;22.20;37.20;;;;;;5075070;28;20039;-61
2022/04/27 11:51:55;;;;;;;2.30;1.27;;;22.30;37.20;;;;;;5075729;28;20097;-57
2022/04/27 11:54:27;;;;;;;2.60;1.20;;;22.20;37.20;;;;;;5074613;28;20024;-60
2022/04/27 11:57:01;;;;;;;5.05;2.03;;;22.20;37.20;;;;;;5075471;28;20012;-57
2022/04/27 11:59:42;;;;;;;4.35;1.30;;;22.20;37.00;;;;;;5075468;28;20463;-59
2022/04/27 12:02:12;;;;;;;4.28;1.30;;;22.20;36.80;;;;;;5075714;28;20020;-58
2022/04/27 12:04:38;;;;;;;3.97;1.50;;;22.20;36.90;;;;;;5075790;28;20063;-57
2022/04/27 12:07:14;;;;;;;2.72;1.35;;;22.10;37.10;;;;;;5074126;28;20023;-59
2022/04/27 12:09:40;;;;;;;1.55;1.08;;;22.20;37.10;;;;;;5075588;28;20016;-58
2022/04/27 12:12:11;;;;;;;3.30;1.58;;;22.20;37.20;;;;;;5075314;28;20013;-58
2022/04/27 12:14:38;;;;;;;2.78;1.40;;;22.00;37.00;;;;;;5075564;28;20013;-59
2022/04/27 12:17:06;;;;;;;2.85;1.35;;;22.00;37.00;;;;;;5075569;28;20009;-58
2022/04/27 12:19:33;;;;;;;2.92;1.55;;;22.00;37.40;;;;;;5075036;28;20021;-58
2022/04/27 12:22:19;;;;;;;1.88;1.10;;;22.00;37.20;;;;;;5075041;28;20062;-59
2022/04/27 12:24:45;;;;;;;4.35;1.20;;;22.10;37.20;;;;;;5074118;28;20052;-57
2022/04/27 12:27:19;;;;;;;3.70;1.20;;;22.10;37.30;;;;;;5074053;28;20387;-57
2022/04/27 12:29:45;;;;;;;2.85;1.30;;;22.10;37.30;;;;;;5075402;28;20024;-59
2022/04/27 12:32:11;;;;;;;2.28;1.30;;;22.10;37.40;;;;;;5074701;28;20032;-58
2022/04/27 12:37:32;;;;;;;2.30;1.40;;;22.00;37.30;;;;;;5074518;28;20104;-60
2022/04/27 12:40:18;;;;;;;2.10;1.20;;;22.00;37.40;;;;;;5074896;28;20032;-57
2022/04/27 12:43:05;;;;;;;2.33;1.50;;;22.00;37.60;;;;;;5074260;28;20094;-56
2022/04/27 12:45:30;;;;;;;2.28;1.20;;;22.00;37.40;;;;;;5075581;28;20040;-59
2022/04/27 12:47:56;;;;;;;3.00;1.58;;;22.00;37.40;;;;;;5075029;28;20021;-57
2022/04/27 12:50:22;;;;;;;2.20;1.20;;;22.10;37.40;;;;;;5074601;28;20360;-56
2022/04/27 12:52:49;;;;;;;3.65;1.40;;;22.00;37.20;;;;;;5074838;28;20044;-59
2022/04/27 12:55:15;;;;;;;3.28;1.20;;;22.00;37.40;;;;;;5074750;28;20032;-58
2022/04/27 12:57:52;;;;;;;1.77;1.15;;;22.00;37.40;;;;;;5074417;28;20055;-61
2022/04/27 13:00:42;;;;;;;2.03;1.35;;;22.00;37.30;;;;;;5074522;28;20009;-58
2022/04/27 13:03:08;;;;;;;3.65;1.30;;;22.00;37.00;;;;;;5074615;28;20107;-58
2022/04/27 13:05:38;;;;;;;2.10;1.02;;;22.00;37.40;;;;;;5074009;28;20075;-58
2022/04/27 13:08:10;;;;;;;2.38;1.20;;;22.00;37.50;;;;;;5074482;28;20013;-57